createdAt,value
2023-03-17T00:00:46.427Z,5.20
2023-03-17T00:03:29.555Z,4.57
2023-03-17T00:05:58.698Z,4.80
2023-03-17T00:08:28.867Z,3.97
2023-03-17T00:10:56.401Z,4.57
2023-03-17T00:13:24.117Z,4.55
2023-03-17T00:15:54.975Z,5.07
2023-03-17T00:18:22.862Z,5.35
2023-03-17T00:20:50.097Z,5.78
2023-03-17T00:23:24.856Z,5.07
2023-03-17T00:25:54.388Z,4.35
2023-03-17T00:28:24.016Z,5.90
2023-03-17T00:31:02.937Z,5.15
2023-03-17T00:33:33.375Z,4.90
2023-03-17T00:36:01.490Z,4.55
2023-03-17T00:38:29.869Z,5.63
2023-03-17T00:40:58.416Z,5.68
2023-03-17T00:43:25.480Z,5.47
2023-03-17T00:45:52.704Z,5.05
2023-03-17T00:48:23.328Z,5.05
2023-03-17T00:50:51.058Z,4.93
2023-03-17T00:53:21.792Z,4.10
2023-03-17T00:55:50.123Z,4.72
2023-03-17T00:58:32.879Z,4.70
2023-03-17T01:01:03.666Z,4.22
2023-03-17T01:03:56.003Z,5.10
2023-03-17T01:06:26.316Z,5.40
2023-03-17T01:08:59.843Z,4.70
2023-03-17T01:14:30.290Z,4.00
2023-03-17T01:17:06.657Z,4.53
2023-03-17T01:19:46.322Z,4.93
2023-03-17T01:22:22.730Z,5.10
2023-03-17T01:24:58.483Z,4.93
2023-03-17T01:27:45.206Z,4.85
2023-03-17T01:30:23.595Z,4.35
2023-03-17T01:33:08.852Z,5.32
2023-03-17T01:35:42.424Z,4.72
2023-03-17T01:38:17.890Z,5.55
2023-03-17T01:40:57.130Z,4.78
2023-03-17T01:43:32.575Z,5.88
2023-03-17T01:46:25.163Z,4.78
2023-03-17T01:49:17.621Z,4.30
2023-03-17T01:52:21.391Z,5.00
2023-03-17T01:55:21.874Z,4.90
2023-03-17T01:58:02.975Z,4.43
2023-03-17T02:00:33.595Z,4.72
2023-03-17T02:03:00.833Z,4.90
2023-03-17T02:05:31.211Z,4.95
2023-03-17T02:07:58.877Z,3.95
2023-03-17T02:10:30.528Z,5.28
2023-03-17T02:13:02.890Z,4.53
2023-03-17T02:15:48.613Z,5.17
2023-03-17T02:18:18.687Z,4.75
2023-03-17T02:20:48.772Z,5.47
2023-03-17T02:23:19.528Z,4.88
2023-03-17T02:25:48.796Z,5.78
2023-03-17T02:28:21.746Z,4.88
2023-03-17T02:30:49.408Z,5.57
2023-03-17T02:33:19.095Z,5.53
2023-03-17T02:35:47.126Z,5.65
2023-03-17T02:38:17.612Z,4.85
2023-03-17T02:40:44.801Z,4.45
2023-03-17T02:43:11.983Z,4.70
2023-03-17T02:45:39.250Z,5.18
2023-03-17T02:48:08.843Z,4.35
2023-03-17T02:50:36.248Z,4.60
2023-03-17T02:53:03.399Z,3.63
2023-03-17T02:55:30.545Z,4.93
2023-03-17T02:57:59.093Z,4.43
2023-03-17T03:00:26.682Z,5.97
2023-03-17T03:02:54.022Z,5.38
2023-03-17T03:05:21.298Z,4.82
2023-03-17T03:07:48.462Z,4.72
2023-03-17T03:10:15.965Z,5.50
2023-03-17T03:12:42.997Z,4.60
2023-03-17T03:15:10.772Z,4.40
2023-03-17T03:17:37.868Z,4.95
2023-03-17T03:20:05.810Z,4.70
2023-03-17T03:22:33.029Z,5.30
2023-03-17T03:25:00.414Z,4.63
2023-03-17T03:27:27.526Z,4.57
2023-03-17T03:29:54.739Z,4.85
2023-03-17T03:32:21.831Z,4.65
2023-03-17T03:34:49.517Z,4.55
2023-03-17T03:37:16.740Z,4.35
2023-03-17T03:39:43.873Z,4.30
2023-03-17T03:42:11.023Z,4.65
2023-03-17T03:44:38.276Z,4.80
2023-03-17T03:47:05.571Z,4.22
2023-03-17T03:49:33.008Z,4.60
2023-03-17T03:52:04.130Z,5.18
2023-03-17T03:54:31.249Z,4.57
2023-03-17T03:56:58.357Z,4.75
2023-03-17T03:59:25.727Z,4.10
2023-03-17T04:01:52.834Z,4.45
2023-03-17T04:04:19.835Z,4.60
2023-03-17T04:06:46.988Z,4.22
2023-03-17T04:09:14.530Z,4.10
2023-03-17T04:11:41.685Z,3.60
2023-03-17T04:14:08.853Z,4.43
2023-03-17T04:16:36.691Z,3.75
2023-03-17T04:19:03.901Z,3.53
2023-03-17T04:21:31.368Z,4.63
2023-03-17T04:23:59.043Z,4.03
2023-03-17T04:26:26.322Z,4.63
2023-03-17T04:28:53.739Z,4.32
2023-03-17T04:31:23.760Z,4.15
2023-03-17T04:33:50.958Z,3.72
2023-03-17T04:36:25.775Z,4.03
2023-03-17T04:38:53.518Z,3.45
2023-03-17T04:41:21.841Z,4.15
2023-03-17T04:43:51.455Z,3.53
2023-03-17T04:46:19.461Z,3.53
2023-03-17T04:48:46.595Z,3.05
2023-03-17T04:51:13.646Z,4.15
2023-03-17T04:53:40.835Z,4.22
2023-03-17T04:56:08.010Z,3.88
2023-03-17T04:58:35.107Z,4.32
2023-03-17T05:01:03.828Z,4.22
2023-03-17T05:03:31.777Z,3.72
2023-03-17T05:05:59.767Z,3.55
2023-03-17T05:08:28.571Z,3.72
2023-03-17T05:10:57.550Z,3.97
2023-03-17T05:13:25.877Z,4.13
2023-03-17T05:15:55.463Z,4.38
2023-03-17T05:18:25.334Z,4.18
2023-03-17T05:20:52.809Z,4.82
2023-03-17T05:23:20.741Z,4.05
2023-03-17T05:25:48.442Z,4.85
2023-03-17T05:28:15.700Z,4.00
2023-03-17T05:30:43.744Z,4.60
2023-03-17T05:33:10.971Z,4.50
2023-03-17T05:35:38.631Z,4.50
2023-03-17T05:38:05.806Z,4.70
2023-03-17T05:40:33.371Z,4.50
2023-03-17T05:43:01.046Z,4.07
2023-03-17T05:45:29.517Z,5.00
2023-03-17T05:47:58.665Z,4.50
2023-03-17T05:50:26.170Z,4.95
2023-03-17T05:52:53.733Z,4.65
2023-03-17T05:55:21.082Z,4.88
2023-03-17T05:57:48.133Z,4.35
2023-03-17T06:00:19.042Z,4.53
2023-03-17T06:02:46.421Z,4.15
2023-03-17T06:05:13.752Z,3.88
2023-03-17T06:07:51.960Z,3.72
2023-03-17T06:10:20.747Z,4.20
2023-03-17T06:12:47.762Z,3.95
2023-03-17T06:15:16.815Z,3.70
2023-03-17T06:17:44.181Z,3.70
2023-03-17T06:20:12.233Z,3.78
2023-03-17T06:22:48.823Z,6.20
2023-03-17T06:25:22.717Z,3.87
2023-03-17T06:27:54.687Z,3.35
2023-03-17T06:30:22.612Z,3.40
2023-03-17T06:32:50.441Z,4.18
2023-03-17T06:35:18.278Z,4.18
2023-03-17T06:37:45.345Z,4.20
2023-03-17T06:40:13.232Z,4.35
2023-03-17T06:42:40.295Z,3.92
2023-03-17T06:45:11.244Z,4.03
2023-03-17T06:47:38.428Z,4.47
2023-03-17T06:50:06.201Z,5.97
2023-03-17T06:52:33.658Z,4.60
2023-03-17T06:55:00.697Z,4.28
2023-03-17T06:57:27.891Z,4.25
2023-03-17T06:59:54.949Z,4.07
2023-03-17T07:02:22.091Z,4.47
2023-03-17T07:04:49.285Z,3.65
2023-03-17T07:07:16.826Z,4.22
2023-03-17T07:09:43.865Z,4.35
2023-03-17T07:12:11.051Z,3.78
2023-03-17T07:14:38.643Z,3.75
2023-03-17T07:17:06.924Z,3.65
2023-03-17T07:19:35.258Z,3.47
2023-03-17T07:22:02.378Z,3.88
2023-03-17T07:24:32.427Z,4.10
2023-03-17T07:26:59.761Z,4.28
2023-03-17T07:29:29.755Z,5.15
2023-03-17T07:31:57.359Z,4.13
2023-03-17T07:34:24.453Z,5.50
2023-03-17T07:36:51.685Z,4.32
2023-03-17T07:39:18.830Z,4.22
2023-03-17T07:41:48.476Z,3.97
2023-03-17T07:44:16.646Z,4.50
2023-03-17T07:46:43.866Z,5.15
2023-03-17T07:49:10.886Z,6.05
2023-03-17T07:51:38.959Z,4.50
2023-03-17T07:54:06.599Z,5.35
2023-03-17T07:56:33.726Z,4.80
2023-03-17T07:59:00.882Z,4.70
2023-03-17T08:01:28.936Z,5.28
2023-03-17T08:03:56.783Z,5.28
2023-03-17T08:06:25.563Z,4.57
2023-03-17T08:08:54.644Z,4.95
2023-03-17T08:11:29.357Z,5.10
2023-03-17T08:13:56.767Z,5.53
2023-03-17T08:16:24.106Z,5.20
2023-03-17T08:18:52.857Z,5.28
2023-03-17T08:21:20.523Z,4.22
2023-03-17T08:23:48.816Z,4.00
2023-03-17T08:26:17.481Z,3.92
2023-03-17T08:28:45.265Z,3.53
2023-03-17T08:31:21.075Z,3.38
2023-03-17T08:33:51.192Z,2.35
2023-03-17T08:36:19.695Z,3.25
2023-03-17T08:38:48.567Z,2.95
2023-03-17T08:41:22.084Z,2.47
2023-03-17T08:43:50.602Z,2.72
2023-03-17T08:46:24.922Z,2.47
2023-03-17T08:48:53.062Z,2.53
2023-03-17T08:51:24.164Z,2.70
2023-03-17T08:53:53.502Z,2.10
2023-03-17T08:56:24.514Z,2.60
2023-03-17T08:58:54.924Z,2.55
2023-03-17T09:01:24.697Z,2.13
2023-03-17T09:03:55.350Z,3.08
2023-03-17T09:06:23.718Z,2.03
2023-03-17T09:09:00.382Z,2.00
2023-03-17T09:11:32.905Z,1.95
2023-03-17T09:14:01.287Z,2.42
2023-03-17T09:16:34.380Z,2.53
2023-03-17T09:19:02.143Z,2.70
2023-03-17T09:21:29.443Z,3.10
2023-03-17T09:23:58.007Z,2.53
2023-03-17T09:26:26.679Z,2.42
2023-03-17T09:28:54.800Z,2.47
2023-03-17T09:31:22.235Z,2.20
2023-03-17T09:33:50.736Z,2.60
2023-03-17T09:36:18.029Z,1.48
2023-03-17T09:38:45.168Z,2.15
2023-03-17T09:41:25.138Z,2.00
2023-03-17T09:44:20.490Z,2.58
2023-03-17T09:47:34.911Z,3.15
2023-03-17T09:50:09.461Z,2.50
2023-03-17T09:52:37.018Z,3.00
2023-03-17T09:55:13.316Z,2.22
2023-03-17T09:57:44.021Z,2.60
2023-03-17T10:00:18.500Z,2.00
2023-03-17T10:02:47.586Z,2.45
2023-03-17T10:05:33.272Z,2.08
2023-03-17T10:11:31.702Z,2.03
2023-03-17T10:14:35.502Z,2.50
2023-03-17T10:17:20.169Z,2.80
2023-03-17T10:20:03.558Z,2.30
2023-03-17T10:22:40.247Z,2.60
2023-03-17T10:25:21.645Z,3.30
2023-03-17T10:28:00.154Z,2.92
2023-03-17T10:30:27.730Z,2.63
2023-03-17T10:32:59.609Z,2.45
2023-03-17T10:35:39.170Z,2.30
2023-03-17T10:38:33.984Z,3.08
2023-03-17T10:41:12.726Z,2.15
2023-03-17T10:43:50.973Z,2.67
2023-03-17T10:46:24.738Z,2.90
2023-03-17T10:49:00.412Z,1.52
2023-03-17T10:51:43.654Z,2.42
2023-03-17T10:54:20.082Z,2.38
2023-03-17T10:56:55.083Z,3.33
2023-03-17T10:59:33.434Z,2.28
2023-03-17T11:02:36.364Z,2.70
2023-03-17T11:05:11.392Z,2.80
2023-03-17T11:07:41.047Z,2.92
2023-03-17T11:10:26.387Z,1.90
2023-03-17T11:13:02.091Z,2.50
2023-03-17T11:15:44.597Z,2.08
2023-03-17T11:18:23.054Z,2.35
2023-03-17T11:21:05.300Z,2.90
2023-03-17T11:23:52.578Z,1.80
2023-03-17T11:26:29.126Z,1.85
2023-03-17T11:29:29.721Z,1.80
2023-03-17T11:32:00.105Z,2.25
2023-03-17T11:35:05.638Z,2.33
2023-03-17T11:37:43.639Z,2.17
2023-03-17T11:40:58.198Z,4.38
2023-03-17T11:45:58.169Z,2.60
2023-03-17T11:48:39.861Z,2.45
2023-03-17T11:51:27.691Z,2.67
2023-03-17T11:54:09.910Z,4.15
2023-03-17T11:56:46.590Z,2.97
2023-03-17T11:59:42.207Z,3.42
2023-03-17T12:02:37.693Z,1.90
2023-03-17T12:05:11.468Z,3.25
2023-03-17T12:07:59.673Z,2.38
2023-03-17T12:10:55.714Z,3.22
2023-03-17T12:13:22.745Z,2.80
2023-03-17T12:16:37.532Z,1.73
2023-03-17T12:19:19.649Z,2.20
2023-03-17T12:22:13.478Z,2.38
2023-03-17T12:24:48.274Z,2.65
2023-03-17T12:28:01.734Z,2.47
2023-03-17T12:30:50.709Z,3.25
2023-03-17T12:33:21.647Z,2.63
2023-03-17T12:35:49.128Z,2.15
2023-03-17T12:38:29.940Z,2.85
2023-03-17T12:41:24.969Z,2.20
2023-03-17T12:44:28.926Z,2.38
2023-03-17T12:47:16.443Z,3.40
2023-03-17T12:50:05.894Z,2.75
2023-03-17T12:53:02.291Z,3.13
2023-03-17T12:55:33.279Z,3.05
2023-03-17T12:58:29.663Z,2.67
2023-03-17T13:01:17.884Z,2.53
2023-03-17T13:04:12.259Z,2.47
2023-03-17T13:06:59.359Z,2.28
2023-03-17T13:09:39.047Z,2.60
2023-03-17T13:12:11.200Z,2.38
2023-03-17T13:14:51.854Z,2.43
2023-03-17T13:17:19.930Z,2.78
2023-03-17T13:20:04.579Z,3.63
2023-03-17T13:22:38.111Z,2.40
2023-03-17T13:25:41.963Z,3.03
2023-03-17T13:28:12.235Z,2.83
2023-03-17T13:30:39.563Z,2.53
2023-03-17T13:33:09.974Z,2.50
2023-03-17T13:35:42.352Z,3.08
2023-03-17T13:38:31.141Z,3.15
2023-03-17T13:41:07.277Z,2.60
2023-03-17T13:43:52.401Z,2.00
2023-03-17T13:46:27.630Z,2.42
2023-03-17T13:48:56.595Z,2.40
2023-03-17T13:51:33.975Z,2.20
2023-03-17T13:54:17.490Z,2.67
2023-03-17T13:56:47.931Z,2.28
2023-03-17T13:59:24.936Z,2.13
2023-03-17T14:02:13.335Z,2.08
2023-03-17T14:04:50.601Z,2.15
2023-03-17T14:07:24.164Z,2.00
2023-03-17T14:09:57.656Z,2.17
2023-03-17T14:12:46.975Z,2.42
2023-03-17T14:15:35.291Z,2.22
2023-03-17T14:18:16.157Z,2.85
2023-03-17T14:20:58.172Z,2.42
2023-03-17T14:23:29.439Z,2.13
2023-03-17T14:25:57.878Z,2.40
2023-03-17T14:28:32.633Z,2.25
2023-03-17T14:31:03.055Z,3.45
2023-03-17T14:33:33.864Z,2.35
2023-03-17T14:36:03.076Z,2.25
2023-03-17T14:38:38.969Z,2.28
2023-03-17T14:41:15.926Z,2.28
2023-03-17T14:43:44.638Z,1.55
2023-03-17T14:46:22.367Z,2.80
2023-03-17T14:48:52.884Z,3.15
2023-03-17T14:51:29.198Z,2.00
2023-03-17T14:54:05.230Z,2.17
2023-03-17T14:56:38.436Z,2.33
2023-03-17T14:59:39.608Z,2.67
2023-03-17T15:02:34.641Z,2.75
2023-03-17T15:05:25.029Z,3.13
2023-03-17T15:07:53.125Z,2.50
2023-03-17T15:10:24.892Z,2.67
2023-03-17T15:13:07.271Z,2.38
2023-03-17T15:15:39.417Z,2.40
2023-03-17T15:18:15.877Z,2.25
2023-03-17T15:20:45.142Z,3.08
2023-03-17T15:23:19.908Z,2.85
2023-03-17T15:25:56.679Z,3.00
2023-03-17T15:28:28.622Z,2.40
2023-03-17T15:31:11.963Z,2.47
2023-03-17T15:33:43.086Z,2.42
2023-03-17T15:36:33.569Z,2.55
2023-03-17T15:39:02.811Z,3.83
2023-03-17T15:41:33.412Z,2.97
2023-03-17T15:44:04.021Z,4.53
2023-03-17T15:46:33.777Z,2.63
2023-03-17T15:49:12.980Z,2.78
2023-03-17T15:51:40.172Z,2.50
2023-03-17T15:54:07.223Z,2.28
2023-03-17T15:56:36.572Z,2.10
2023-03-17T15:59:03.665Z,2.72
2023-03-17T16:01:30.871Z,3.13
2023-03-17T16:03:58.042Z,2.78
2023-03-17T16:06:25.515Z,2.67
2023-03-17T16:08:52.557Z,2.90
2023-03-17T16:11:28.402Z,2.80
2023-03-17T16:14:00.047Z,2.72
2023-03-17T16:16:32.347Z,3.00
2023-03-17T16:19:00.514Z,2.50
2023-03-17T16:21:29.599Z,2.60
2023-03-17T16:23:57.037Z,2.45
2023-03-17T16:26:24.523Z,2.80
2023-03-17T16:28:51.753Z,2.20
2023-03-17T16:31:23.645Z,2.10
2023-03-17T16:33:52.840Z,3.20
2023-03-17T16:36:24.442Z,3.40
2023-03-17T16:38:52.223Z,2.83
2023-03-17T16:41:29.985Z,2.60
2023-03-17T16:44:07.825Z,2.80
2023-03-17T16:46:35.839Z,3.30
2023-03-17T16:49:06.724Z,3.80
2023-03-17T16:51:33.916Z,2.85
2023-03-17T16:54:01.061Z,3.45
2023-03-17T16:56:28.713Z,4.38
2023-03-17T16:58:55.864Z,3.88
2023-03-17T17:01:32.155Z,3.03
2023-03-17T17:03:59.702Z,3.60
2023-03-17T17:06:26.912Z,2.97
2023-03-17T17:08:54.244Z,3.30
2023-03-17T17:11:22.115Z,3.00
2023-03-17T17:13:50.243Z,3.97
2023-03-17T17:16:28.393Z,3.25
2023-03-17T17:19:03.179Z,3.38
2023-03-17T17:21:32.213Z,3.25
2023-03-17T17:23:59.556Z,2.72
2023-03-17T17:26:29.743Z,3.80
2023-03-17T17:29:03.155Z,3.20
2023-03-17T17:31:38.735Z,3.58
2023-03-17T17:34:27.312Z,2.78
2023-03-17T17:40:11.417Z,2.65
2023-03-17T17:42:47.026Z,3.20
2023-03-17T17:45:31.005Z,3.40
2023-03-17T17:48:06.860Z,3.83
2023-03-17T17:50:48.197Z,2.65
2023-03-17T17:53:23.231Z,2.92
2023-03-17T17:56:07.616Z,2.70
2023-03-17T17:58:35.390Z,3.50
2023-03-17T18:01:08.676Z,4.00
2023-03-17T18:03:46.987Z,3.47
2023-03-17T18:06:17.910Z,3.70
2023-03-17T18:08:50.141Z,3.95
2023-03-17T18:11:27.350Z,4.13
2023-03-17T18:13:55.006Z,3.78
2023-03-17T18:16:22.138Z,3.83
2023-03-17T18:18:49.675Z,4.55
2023-03-17T18:21:17.649Z,5.10
2023-03-17T18:23:49.011Z,5.15
2023-03-17T18:26:18.143Z,5.40
2023-03-17T18:28:45.656Z,5.68
2023-03-17T18:31:20.111Z,4.95
2023-03-17T18:33:49.468Z,4.07
2023-03-17T18:36:16.785Z,3.70
2023-03-17T18:38:43.888Z,3.88
2023-03-17T18:41:11.422Z,4.75
2023-03-17T18:43:39.543Z,3.22
2023-03-17T18:46:07.115Z,3.33
2023-03-17T18:48:36.705Z,3.00
2023-03-17T18:51:04.306Z,3.08
2023-03-17T18:53:33.401Z,3.63
2023-03-17T18:56:00.825Z,3.70
2023-03-17T18:58:29.017Z,3.30
2023-03-17T19:01:01.202Z,3.13
2023-03-17T19:03:32.296Z,4.97
2023-03-17T19:06:09.123Z,3.15
2023-03-17T19:08:37.345Z,3.92
2023-03-17T19:11:11.753Z,3.33
2023-03-17T19:13:39.312Z,3.55
2023-03-17T19:16:08.062Z,3.05
2023-03-17T19:18:37.189Z,3.42
2023-03-17T19:21:04.711Z,4.40
2023-03-17T19:23:34.989Z,2.80
2023-03-17T19:26:03.012Z,3.10
2023-03-17T19:28:30.486Z,3.08
2023-03-17T19:30:58.658Z,2.67
2023-03-17T19:33:29.370Z,2.75
2023-03-17T19:35:58.848Z,3.60
2023-03-17T19:38:29.175Z,2.50
2023-03-17T19:41:01.168Z,3.78
2023-03-17T19:43:39.978Z,3.00
2023-03-17T19:46:08.248Z,3.72
2023-03-17T19:48:36.748Z,4.20
2023-03-17T19:51:05.130Z,4.35
2023-03-17T19:53:32.528Z,2.75
2023-03-17T19:56:00.713Z,3.35
2023-03-17T19:58:28.077Z,4.30
2023-03-17T20:00:55.578Z,4.50
2023-03-17T20:03:25.587Z,4.28
2023-03-17T20:05:53.607Z,3.03
2023-03-17T20:08:22.627Z,5.05
2023-03-17T20:10:56.828Z,4.68
2023-03-17T20:13:24.174Z,3.58
2023-03-17T20:15:51.837Z,4.18
2023-03-17T20:18:19.342Z,5.85
2023-03-17T20:20:52.288Z,3.33
2023-03-17T20:23:19.766Z,3.85
2023-03-17T20:25:46.951Z,3.33
2023-03-17T20:28:14.263Z,4.07
2023-03-17T20:30:43.992Z,4.22
2023-03-17T20:33:14.706Z,4.22
2023-03-17T20:35:44.001Z,3.83
2023-03-17T20:38:14.839Z,3.90
2023-03-17T20:40:42.383Z,4.18
2023-03-17T20:43:09.759Z,3.03
2023-03-17T20:45:38.644Z,3.65
2023-03-17T20:48:09.245Z,3.13
2023-03-17T20:50:37.146Z,3.08
2023-03-17T20:53:06.493Z,5.07
2023-03-17T20:55:39.379Z,3.38
2023-03-17T20:58:09.295Z,3.30
2023-03-17T21:00:36.367Z,3.58
2023-03-17T21:03:06.460Z,3.50
2023-03-17T21:05:37.050Z,3.70
2023-03-17T21:08:05.736Z,3.78
2023-03-17T21:10:33.312Z,3.85
2023-03-17T21:13:00.573Z,3.47
2023-03-17T21:15:27.871Z,3.70
2023-03-17T21:17:55.281Z,3.65
2023-03-17T21:20:22.550Z,3.10
2023-03-17T21:22:50.034Z,4.28
2023-03-17T21:25:17.501Z,3.33
2023-03-17T21:27:47.310Z,3.42
2023-03-17T21:30:14.748Z,3.28
2023-03-17T21:32:42.068Z,3.85
2023-03-17T21:35:12.074Z,3.65
2023-03-17T21:37:41.940Z,4.00
2023-03-17T21:40:13.702Z,3.08
2023-03-17T21:42:41.133Z,4.00
2023-03-17T21:45:09.309Z,3.45
2023-03-17T21:47:36.592Z,3.83
2023-03-17T21:50:07.220Z,3.10
2023-03-17T21:52:34.850Z,3.67
2023-03-17T21:55:02.045Z,4.03
2023-03-17T21:57:29.812Z,3.97
2023-03-17T21:59:57.060Z,4.80
2023-03-17T22:02:24.480Z,5.60
2023-03-17T22:04:51.681Z,5.18
2023-03-17T22:07:19.123Z,4.07
2023-03-17T22:09:46.255Z,3.67
2023-03-17T22:12:13.901Z,3.85
2023-03-17T22:14:40.982Z,4.30
2023-03-17T22:17:08.540Z,3.95
2023-03-17T22:19:40.351Z,4.68
2023-03-17T22:22:10.308Z,4.18
2023-03-17T22:24:41.022Z,3.80
2023-03-17T22:27:08.754Z,5.50
2023-03-17T22:29:37.005Z,5.20
2023-03-17T22:32:05.006Z,4.55
2023-03-17T22:34:32.362Z,4.30
2023-03-17T22:36:59.552Z,3.67
2023-03-17T22:39:28.011Z,4.72
2023-03-17T22:41:55.269Z,3.63
2023-03-17T22:44:25.578Z,4.15
2023-03-17T22:46:55.912Z,3.83
2023-03-17T22:49:23.913Z,3.35
2023-03-17T22:51:51.450Z,4.35
2023-03-17T22:54:22.418Z,3.83
2023-03-17T22:56:49.834Z,3.50
2023-03-17T22:59:18.494Z,4.00
2023-03-17T23:01:46.006Z,4.50
2023-03-17T23:04:13.394Z,4.13
2023-03-17T23:06:41.827Z,3.88
2023-03-17T23:09:13.497Z,3.78
2023-03-17T23:11:41.870Z,3.97
2023-03-17T23:14:09.227Z,3.95
2023-03-17T23:16:37.892Z,3.95
2023-03-17T23:19:07.928Z,3.38
2023-03-17T23:21:38.042Z,4.50
2023-03-17T23:24:08.036Z,3.90
2023-03-17T23:26:37.256Z,4.20
2023-03-17T23:29:07.337Z,2.95
2023-03-17T23:31:35.640Z,4.15
2023-03-17T23:34:12.427Z,4.88
2023-03-17T23:36:40.376Z,3.40
2023-03-17T23:39:10.669Z,3.70
2023-03-17T23:41:39.221Z,4.65
2023-03-17T23:44:06.811Z,4.13
2023-03-17T23:46:36.825Z,3.95
2023-03-17T23:49:07.686Z,4.32
2023-03-17T23:51:35.826Z,4.97
2023-03-17T23:54:04.449Z,3.92
2023-03-17T23:56:32.648Z,3.75
2023-03-17T23:59:00.459Z,3.85
